MET'MAP v2.0
soon released !

Expected late october,
this new version will be
more efficient, smarter,
and hosted on a brand new
server x3 powerfull...
...and still free !


Not compatible ?
Try the mobile version !

LOG IN : | Subscribe | Disclaimer | Who is Orbifly ? |
ICAO code :

TAF - LFQG Nevers - 19 May 2019 16:22 UTC
Data Sources :     NOAA   



- Airport Elevation : 602 ft
- IATA code : NVS
- Download approach charts
- No reported NOTAMs.


LFQG - Nevers

Latest METAR recorded : 2019/05/19 14:00 LFQG 191400Z AUTO 24005KT 190V270 9999 BKN018 OVC062 16/12 Q1007
NO TAF


MET'MAP, your aeronautical weather chart ! - Copyright ORBIFLY December 2007

Programming & Development : Alexandra Zaïnal
Co-Developer : Marc-Olivier Méhu
Technical & hardware support : Manuel Goepfert
Concept & Financing : Baudouin d'Aumeries